Time;durP1;ratioP1;P1;durP2;ratioP2;P2;SDS_P1;SDS_P2;PMS_P1;PMS_P2;Temp;Humidity;BMP_temperature;BMP_pressure;BME280_temperature;BME280_humidity;BME280_pressure;Samples;Min_cycle;Max_cycle;Signal;HPM_P1;HPM_P2
2021/01/06 00:00:47;;;;;;;38.30;20.63;;;;;;;0.34;89.07;95186.72;5086589;28;20402;-74
2021/01/06 00:03:19;;;;;;;58.50;21.75;;;;;;;0.38;89.62;95182.91;5087642;28;20036;-74
2021/01/06 00:05:50;;;;;;;37.85;20.13;;;;;;;0.51;89.39;95188.34;5069853;28;20508;-74
2021/01/06 00:08:17;;;;;;;35.60;18.27;;;;;;;0.42;88.44;95189.28;5087847;28;20040;-74
2021/01/06 00:10:45;;;;;;;34.40;17.50;;;;;;;0.32;88.35;95178.38;5068386;28;20875;-73
2021/01/06 00:13:11;;;;;;;36.55;18.95;;;;;;;0.38;89.54;95182.91;5086550;28;20040;-74
2021/01/06 00:15:38;;;;;;;35.17;17.65;;;;;;;0.34;89.83;95191.84;5087183;28;20414;-73
2021/01/06 00:18:05;;;;;;;32.28;17.10;;;;;;;0.39;89.85;95194.72;5087730;28;20044;-73
2021/01/06 00:20:31;;;;;;;31.98;15.90;;;;;;;0.47;89.37;95194.75;5087651;28;20032;-73
2021/01/06 00:22:58;;;;;;;28.02;14.15;;;;;;;0.45;89.30;95183.88;5085882;28;20048;-73
2021/01/06 00:25:31;;;;;;;34.70;17.67;;;;;;;0.37;89.21;95176.16;5087416;28;20042;-72
2021/01/06 00:27:57;;;;;;;31.65;15.85;;;;;;;0.43;89.82;95180.63;5087297;28;20039;-73
2021/01/06 00:30:26;;;;;;;32.95;18.08;;;;;;;0.39;89.92;95184.47;5087110;28;20032;-73
2021/01/06 00:32:53;;;;;;;45.90;21.83;;;;;;;0.29;90.43;95178.69;5084731;28;20102;-73
2021/01/06 00:35:24;;;;;;;32.50;16.17;;;;;;;0.35;90.86;95188.31;5086721;28;20066;-73
2021/01/06 00:37:51;;;;;;;26.77;13.85;;;;;;;0.43;90.51;95201.13;5085610;28;20040;-73
2021/01/06 00:40:18;;;;;;;30.92;16.02;;;;;;;0.29;92.44;95183.81;5086915;28;20036;-73
2021/01/06 00:42:45;;;;;;;30.25;15.50;;;;;;;0.35;92.87;95193.44;5086752;28;20086;-74
2021/01/06 00:45:15;;;;;;;39.15;15.27;;;;;;;0.35;92.87;95194.25;5084673;28;20040;-74
2021/01/06 00:47:42;;;;;;;34.53;16.77;;;;;;;0.46;92.78;95211.06;5086991;28;20044;-73
2021/01/06 00:50:11;;;;;;;34.92;17.30;;;;;;;0.50;92.10;95199.53;5072579;28;20494;-73
2021/01/06 00:52:38;;;;;;;33.60;17.95;;;;;;;0.59;92.25;95209.81;5089037;28;20070;-73
2021/01/06 00:55:05;;;;;;;24.83;13.82;;;;;;;0.60;92.13;95208.88;5088242;28;20089;-73
2021/01/06 00:57:31;;;;;;;24.65;13.57;;;;;;;0.44;92.97;95205.31;5089359;28;20067;-74
2021/01/06 00:59:58;;;;;;;28.52;12.52;;;;;;;0.45;92.67;95209.50;5088475;28;20052;-74
2021/01/06 01:02:25;;;;;;;24.52;11.10;;;;;;;0.49;92.89;95203.06;5090465;28;20115;-74
2021/01/06 01:04:51;;;;;;;17.48;8.65;;;;;;;0.40;93.59;95196.34;5090577;28;20505;-73
2021/01/06 01:07:18;;;;;;;17.77;8.18;;;;;;;0.53;93.04;95203.56;5089535;28;20047;-73
2021/01/06 01:09:45;;;;;;;19.10;9.45;;;;;;;0.66;92.99;95215.91;5090162;28;20043;-74
2021/01/06 01:12:12;;;;;;;17.58;8.38;;;;;;;0.69;91.75;95200.22;5090724;28;20412;-73
2021/01/06 01:14:39;;;;;;;16.35;8.45;;;;;;;0.82;91.52;95207.41;5089638;28;20523;-73
2021/01/06 01:17:07;;;;;;;10.20;5.60;;;;;;;0.81;91.43;95193.81;5090076;28;20520;-73
2021/01/06 01:19:33;;;;;;;11.52;5.35;;;;;;;0.81;91.64;95178.41;5090482;28;20507;-74
2021/01/06 01:21:59;;;;;;;7.95;4.95;;;;;;;0.86;91.73;95165.09;5089143;28;20040;-74
2021/01/06 01:24:26;;;;;;;11.18;4.80;;;;;;;0.95;91.36;95195.72;5088982;28;20036;-73
2021/01/06 01:26:52;;;;;;;8.43;4.78;;;;;;;1.04;91.33;95182.84;5090216;28;20040;-74
2021/01/06 01:29:19;;;;;;;8.48;3.85;;;;;;;1.04;91.24;95157.22;5090557;28;20044;-74
2021/01/06 01:31:46;;;;;;;5.97;3.05;;;;;;;1.14;91.40;95162.97;5088771;28;20132;-74
2021/01/06 01:34:14;;;;;;;5.68;2.95;;;;;;;1.22;91.05;95170.63;5089258;28;20490;-73
2021/01/06 01:36:51;;;;;;;4.47;2.63;;;;;;;1.43;90.40;95177.00;5090124;28;20058;-74
2021/01/06 01:39:19;;;;;;;6.40;2.00;;;;;;;1.56;89.63;95177.28;5088561;28;20432;-74
2021/01/06 01:41:45;;;;;;;12.75;4.53;;;;;;;1.76;88.41;95187.16;5088977;28;20502;-74
2021/01/06 01:44:13;;;;;;;18.30;8.48;;;;;;;1.86;86.36;95198.81;5089651;28;20051;-73
2021/01/06 01:47:17;;;;;;;24.90;12.05;;;;;;;1.67;86.64;95176.91;5088965;28;20533;-74
2021/01/06 01:49:47;;;;;;;19.20;9.27;;;;;;;1.49;88.65;95160.94;5087138;28;20552;-73
2021/01/06 01:52:26;;;;;;;19.50;7.65;;;;;;;1.53;89.35;95182.72;5089661;28;20494;-73
2021/01/06 01:54:54;;;;;;;19.88;9.07;;;;;;;1.53;88.25;95177.59;5085861;28;20080;-74
2021/01/06 01:57:30;;;;;;;43.28;14.52;;;;;;;1.66;87.37;95162.47;5087317;28;20043;-74
2021/01/06 02:00:19;;;;;;;27.20;12.60;;;;;;;1.74;87.71;95168.53;5088114;28;20502;-74
2021/01/06 02:02:59;;;;;;;14.75;7.25;;;;;;;1.74;87.97;95183.94;5089170;28;20035;-74
2021/01/06 02:06:02;;;;;;;21.75;11.07;;;;;;;1.78;87.17;95169.81;5088325;28;20077;-74
2021/01/06 02:08:47;;;;;;;23.08;11.07;;;;;;;1.86;86.59;95167.22;5087300;28;20044;-74
2021/01/06 02:11:27;;;;;;;36.08;16.85;;;;;;;1.81;85.72;95172.03;5088262;28;20119;-74
2021/01/06 02:14:02;;;;;;;30.63;13.57;;;;;;;1.57;86.15;95178.88;5088863;28;20054;-72
2021/01/06 02:16:38;;;;;;;35.28;17.17;;;;;;;1.60;86.55;95168.25;5088518;28;20047;-73
2021/01/06 02:19:05;;;;;;;35.80;19.52;;;;;;;1.52;87.22;95165.75;5088519;28;20048;-72
2021/01/06 02:21:33;;;;;;;31.02;17.45;;;;;;;1.46;88.41;95161.25;5088029;28;20506;-73
2021/01/06 02:24:00;;;;;;;44.38;19.35;;;;;;;1.34;89.65;95161.63;5088704;28;20040;-73
2021/01/06 02:26:28;;;;;;;45.20;23.15;;;;;;;1.44;89.21;95168.31;5087935;28;20094;-72
2021/01/06 02:28:56;;;;;;;59.80;27.02;;;;;;;1.32;88.86;95139.66;5087686;28;20048;-73
2021/01/06 02:31:23;;;;;;;61.67;29.10;;;;;;;1.30;89.14;95170.63;5089322;28;20051;-73
2021/01/06 02:33:51;;;;;;;63.38;29.90;;;;;;;1.28;89.47;95170.00;5088992;28;20036;-73
2021/01/06 02:36:19;;;;;;;56.22;29.17;;;;;;;1.42;89.38;95171.06;5087434;28;20044;-73
2021/01/06 02:38:46;;;;;;;65.07;32.80;;;;;;;1.49;89.31;95160.94;5087729;28;20044;-73
2021/01/06 02:41:13;;;;;;;68.45;30.38;;;;;;;1.47;89.43;95157.72;5087645;28;20052;-73
2021/01/06 02:43:42;;;;;;;62.58;31.60;;;;;;;1.47;89.64;95155.16;5088467;28;20028;-73
2021/01/06 02:46:09;;;;;;;61.05;29.45;;;;;;;1.49;89.24;95151.44;5088941;28;20505;-73
2021/01/06 02:48:38;;;;;;;75.22;29.73;;;;;;;1.57;88.94;95157.53;5088458;28;20500;-73
2021/01/06 02:51:46;;;;;;;61.83;29.98;;;;;;;1.57;88.49;95165.22;5088539;28;20055;-73
2021/01/06 02:54:18;;;;;;;65.00;33.30;;;;;;;1.58;88.26;95161.69;5088215;28;20390;-73
2021/01/06 02:56:47;;;;;;;60.15;30.60;;;;;;;1.60;88.43;95158.00;5087030;28;20522;-73
2021/01/06 02:59:14;;;;;;;71.22;30.77;;;;;;;1.59;88.14;95143.56;5088226;28;20048;-74
2021/01/06 03:01:43;;;;;;;70.57;34.08;;;;;;;1.57;88.30;95150.63;5087553;28;20501;-73
2021/01/06 03:04:14;;;;;;;75.72;34.33;;;;;;;1.54;88.29;95153.53;5084839;28;20036;-73
2021/01/06 03:06:54;;;;;;;67.13;32.70;;;;;;;1.56;88.33;95141.31;5088294;28;20047;-73
2021/01/06 03:09:42;;;;;;;68.20;31.63;;;;;;;1.57;88.98;95142.94;5088092;28;20040;-73
2021/01/06 03:12:24;;;;;;;65.45;29.73;;;;;;;1.52;89.04;95150.34;5086919;28;20055;-73
2021/01/06 03:14:50;;;;;;;69.53;31.65;;;;;;;1.39;89.53;95132.09;5087387;28;20119;-73
2021/01/06 03:17:21;;;;;;;63.13;31.55;;;;;;;1.52;88.58;95150.34;5086950;28;20040;-73
2021/01/06 03:19:56;;;;;;;61.13;29.70;;;;;;;1.54;88.41;95150.97;5086452;28;20036;-73
2021/01/06 03:22:25;;;;;;;78.97;40.30;;;;;;;1.38;88.41;95128.72;5085246;28;20074;-73
2021/01/06 03:25:13;;;;;;;70.85;35.75;;;;;;;1.34;90.25;95142.84;5086708;28;20051;-73
2021/01/06 03:27:42;;;;;;;77.85;34.63;;;;;;;1.38;89.82;95145.91;5087940;28;20036;-73
2021/01/06 03:30:13;;;;;;;66.47;32.88;;;;;;;1.38;89.84;95136.41;5087709;28;20125;-73
2021/01/06 03:32:58;;;;;;;69.85;34.15;;;;;;;1.41;90.17;95132.75;5085408;28;20063;-73
2021/01/06 03:35:38;;;;;;;74.00;34.95;;;;;;;1.18;91.11;95153.97;5087756;28;20040;-73
2021/01/06 03:38:16;;;;;;;72.70;37.15;;;;;;;1.27;91.02;95152.19;5085501;28;20098;-74
2021/01/06 03:40:47;;;;;;;68.45;35.95;;;;;;;1.36;90.19;95150.41;5086943;28;20040;-73
2021/01/06 03:43:15;;;;;;;78.10;32.80;;;;;;;1.40;90.03;95164.50;5087052;28;20115;-74
2021/01/06 03:45:47;;;;;;;80.70;40.92;;;;;;;1.36;89.77;95173.50;5086667;28;20058;-74
2021/01/06 03:48:34;;;;;;;78.30;41.13;;;;;;;1.29;90.06;95158.75;5087121;28;20044;-74
2021/01/06 03:51:16;;;;;;;80.80;39.63;;;;;;;1.22;91.21;95159.56;5086427;28;20524;-74
2021/01/06 03:53:48;;;;;;;66.57;32.88;;;;;;;1.09;91.26;95153.19;5086411;28;20028;-74
2021/01/06 03:56:25;;;;;;;55.47;28.13;;;;;;;1.12;91.42;95149.50;5086231;28;20040;-74
2021/01/06 03:59:10;;;;;;;51.42;26.70;;;;;;;1.26;91.17;95159.09;5086998;28;20059;-74
2021/01/06 04:01:48;;;;;;;43.70;22.55;;;;;;;1.33;90.74;95157.47;5087437;28;20403;-74
2021/01/06 04:04:24;;;;;;;47.92;23.27;;;;;;;1.40;90.38;95147.31;5086453;28;20697;-74
2021/01/06 04:06:53;;;;;;;35.10;18.27;;;;;;;1.43;90.46;95146.22;5087254;28;20438;-73
2021/01/06 04:09:31;;;;;;;28.05;14.88;;;;;;;1.48;90.10;95154.22;5085074;28;20120;-73
2021/01/06 04:12:14;;;;;;;26.25;11.80;;;;;;;1.57;89.84;95160.09;5086071;28;20048;-74
2021/01/06 04:14:41;;;;;;;19.65;9.18;;;;;;;1.61;89.51;95164.75;5084491;28;20052;-73
2021/01/06 04:17:18;;;;;;;17.20;10.07;;;;;;;1.72;89.12;95171.28;5085879;28;20113;-72
2021/01/06 04:19:57;;;;;;;22.20;10.82;;;;;;;1.70;88.79;95163.72;5084705;28;20039;-73
2021/01/06 04:22:41;;;;;;;19.25;10.48;;;;;;;1.46;90.63;95171.53;5087101;28;20493;-73
2021/01/06 04:25:28;;;;;;;18.65;9.63;;;;;;;1.38;90.77;95169.78;5086309;28;20454;-73
2021/01/06 04:28:20;;;;;;;14.55;7.72;;;;;;;1.40;90.88;95164.50;5085538;28;20409;-73
2021/01/06 04:30:55;;;;;;;8.77;5.05;;;;;;;1.47;90.68;95158.53;5081587;28;20082;-73
2021/01/06 04:33:23;;;;;;;6.05;3.53;;;;;;;1.48;90.49;95174.75;5086296;28;20046;-73
2021/01/06 04:35:52;;;;;;;6.65;3.47;;;;;;;1.64;89.58;95164.41;5086916;28;20036;-73
2021/01/06 04:38:24;;;;;;;8.23;3.90;;;;;;;1.91;87.16;95159.81;5084738;28;20055;-73
2021/01/06 04:40:56;;;;;;;4.97;2.95;;;;;;;2.11;85.59;95160.16;5086252;28;20046;-73
2021/01/06 04:43:43;;;;;;;9.00;3.28;;;;;;;2.26;84.46;95152.50;5085247;28;20092;-73
2021/01/06 04:46:33;;;;;;;9.77;3.78;;;;;;;2.40;83.66;95154.34;5085874;28;20040;-73
2021/01/06 04:49:18;;;;;;;5.95;3.15;;;;;;;2.52;82.50;95161.66;5086022;28;20067;-73
2021/01/06 04:52:06;;;;;;;5.57;3.17;;;;;;;2.55;82.87;95166.44;5087165;28;20052;-73
2021/01/06 04:54:33;;;;;;;6.22;2.83;;;;;;;2.49;83.33;95173.09;5086605;28;20051;-73
2021/01/06 04:57:10;;;;;;;7.72;3.30;;;;;;;2.48;83.38;95167.16;5085126;28;20505;-72
2021/01/06 05:00:04;;;;;;;5.80;3.22;;;;;;;2.54;83.37;95182.84;5086462;28;20055;-73
2021/01/06 05:02:30;;;;;;;6.40;2.97;;;;;;;2.52;83.35;95177.06;5086568;28;20440;-73
2021/01/06 05:05:23;;;;;;;7.80;4.40;;;;;;;2.54;83.95;95170.81;5086681;28;20524;-73
2021/01/06 05:08:16;;;;;;;6.88;3.20;;;;;;;2.55;84.31;95169.03;5085453;28;20052;-73
2021/01/06 05:10:53;;;;;;;5.88;3.70;;;;;;;2.54;83.78;95175.13;5085456;28;20036;-73
2021/01/06 05:13:38;;;;;;;5.40;3.40;;;;;;;2.49;84.07;95168.72;5085793;28;20429;-73
2021/01/06 05:16:07;;;;;;;;;;;;;;;2.47;83.66;95191.25;5086581;28;20614;-73
2021/01/06 05:18:34;;;;;;;15.27;7.32;;;;;;;2.64;82.35;95185.97;5084879;28;19920;-72
2021/01/06 05:21:00;;;;;;;17.00;7.65;;;;;;;2.65;82.99;95177.31;5086173;28;20040;-71
2021/01/06 05:23:29;;;;;;;12.25;7.25;;;;;;;2.66;83.05;95178.88;5086942;28;20044;-72
2021/01/06 05:25:59;;;;;;;9.07;5.63;;;;;;;2.55;83.39;95179.31;5084992;28;20050;-72
2021/01/06 05:28:26;;;;;;;11.35;7.10;;;;;;;2.55;84.16;95166.44;5086425;28;20039;-72
2021/01/06 05:30:55;;;;;;;13.60;7.88;;;;;;;2.64;83.57;95171.34;5086634;28;20044;-72
2021/01/06 05:33:44;;;;;;;16.45;9.43;;;;;;;2.74;83.72;95165.97;5085042;28;20028;-72
2021/01/06 05:36:20;;;;;;;15.20;7.18;;;;;;;2.52;84.45;95161.66;5089117;28;20040;-72
2021/01/06 05:38:46;;;;;;;7.10;5.25;;;;;;;2.33;85.46;95163.72;5089845;28;20115;-72
2021/01/06 05:41:13;;;;;;;6.70;4.32;;;;;;;2.52;85.12;95156.50;5090355;28;20050;-72
2021/01/06 05:43:50;;;;;;;8.77;4.47;;;;;;;2.59;84.35;95162.56;5088557;28;20036;-73
2021/01/06 05:46:25;;;;;;;9.93;5.00;;;;;;;2.65;83.76;95177.31;5071008;28;20131;-73
2021/01/06 05:49:01;;;;;;;12.63;6.75;;;;;;;2.77;83.66;95180.25;5088946;28;20040;-72
2021/01/06 05:51:33;;;;;;;15.60;10.68;;;;;;;2.87;83.41;95184.19;5087595;28;20113;-72
2021/01/06 05:54:13;;;;;;;9.55;6.45;;;;;;;2.94;82.66;95186.06;5089455;28;20032;-74
2021/01/06 05:56:52;;;;;;;9.65;5.40;;;;;;;3.08;81.99;95177.59;5087272;28;20123;-74
2021/01/06 05:59:39;;;;;;;9.27;3.92;;;;;;;3.00;82.15;95185.38;5087226;28;20052;-73
2021/01/06 06:02:33;;;;;;;6.20;4.05;;;;;;;3.03;81.82;95190.16;5088244;28;20559;-73
2021/01/06 06:05:18;;;;;;;14.05;8.48;;;;;;;3.16;81.05;95200.66;5087005;28;20047;-73
2021/01/06 06:08:12;;;;;;;8.77;6.05;;;;;;;3.18;81.24;95196.13;5089249;28;20048;-73
2021/01/06 06:11:18;;;;;;;10.05;6.78;;;;;;;3.08;81.22;95200.75;5087977;28;20066;-73
2021/01/06 06:14:03;;;;;;;;;;;;;;;2.92;82.06;95198.28;5089342;28;20529;-72
2021/01/06 06:16:59;;;;;;;9.57;5.93;;;;;;;2.76;82.97;95199.25;5088009;28;19969;-73
2021/01/06 06:19:38;;;;;;;57.65;17.27;;;;;;;2.81;82.33;95215.75;5087688;28;20050;-73
2021/01/06 06:22:20;;;;;;;28.58;15.30;;;;;;;2.79;81.67;95215.13;5088700;28;20043;-72
2021/01/06 06:24:58;;;;;;;30.88;16.33;;;;;;;2.60;83.05;95220.75;5086736;28;20055;-72
2021/01/06 06:27:31;;;;;;;24.02;13.25;;;;;;;2.44;84.73;95201.88;5086939;28;20055;-71
2021/01/06 06:30:11;;;;;;;21.38;11.48;;;;;;;2.45;85.06;95213.75;5088847;28;20086;-72
2021/01/06 06:32:39;;;;;;;13.07;7.50;;;;;;;2.43;84.31;95215.72;5087526;28;20115;-72
2021/01/06 06:35:17;;;;;;;32.47;18.88;;;;;;;2.56;83.66;95240.06;5088832;28;20116;-72
2021/01/06 06:37:49;;;;;;;42.72;13.60;;;;;;;2.80;82.69;95242.44;5086922;28;20039;-71
2021/01/06 06:40:16;;;;;;;35.80;13.60;;;;;;;2.89;82.47;95244.97;5086399;28;20501;-70
2021/01/06 06:42:53;;;;;;;29.88;13.00;;;;;;;2.93;82.58;95238.50;5088900;28;20032;-72
2021/01/06 06:45:38;;;;;;;36.50;18.65;;;;;;;2.78;83.81;95244.41;5086501;28;20122;-72
2021/01/06 06:48:12;;;;;;;15.88;8.10;;;;;;;2.68;84.27;95234.34;5084919;28;20135;-72
2021/01/06 06:51:03;;;;;;;9.07;4.82;;;;;;;2.72;84.09;95229.66;5085958;28;20468;-72
2021/01/06 06:53:41;;;;;;;10.02;5.53;;;;;;;2.83;83.22;95231.81;5083236;28;20044;-72
2021/01/06 06:56:14;;;;;;;10.85;4.78;;;;;;;2.99;82.34;95235.22;5083541;28;20131;-73
2021/01/06 06:59:04;;;;;;;11.98;8.13;;;;;;;3.07;82.07;95237.75;5085851;28;20414;-72
2021/01/06 07:01:44;;;;;;;20.85;10.90;;;;;;;3.16;81.47;95236.69;5087418;28;20040;-72
2021/01/06 07:04:20;;;;;;;23.45;15.23;;;;;;;3.32;80.13;95242.69;5087677;28;20036;-72
2021/01/06 07:07:00;;;;;;;5.57;3.78;;;;;;;3.28;80.20;95231.09;5086394;28;20043;-73
2021/01/06 07:09:30;;;;;;;8.43;6.10;;;;;;;3.39;80.16;95251.31;5087505;28;20040;-72
2021/01/06 07:12:23;;;;;;;15.18;5.10;;;;;;;3.49;80.14;95251.81;5087849;28;20067;-73
2021/01/06 07:14:54;;;;;;;10.70;4.13;;;;;;;3.58;80.06;95240.50;5084979;28;20490;-73
2021/01/06 07:17:35;;;;;;;5.60;2.75;;;;;;;3.67;79.25;95253.28;5087296;28;20071;-73
2021/01/06 07:20:08;;;;;;;6.90;3.47;;;;;;;3.72;79.10;95251.75;5068998;28;20042;-72
2021/01/06 07:22:39;;;;;;;9.50;3.97;;;;;;;3.77;79.28;95253.81;5086761;28;20040;-72
2021/01/06 07:25:18;;;;;;;6.57;3.65;;;;;;;3.89;78.79;95246.41;5086497;28;20040;-73
2021/01/06 07:27:49;;;;;;;5.50;3.55;;;;;;;3.80;79.27;95238.00;5087830;28;20115;-72
2021/01/06 07:30:48;;;;;;;10.32;5.30;;;;;;;3.97;79.65;95260.00;5085791;28;20407;-73
2021/01/06 07:33:26;;;;;;;11.38;4.40;;;;;;;4.00;79.88;95275.13;5085628;28;20117;-72
2021/01/06 07:35:53;;;;;;;10.65;4.28;;;;;;;4.07;79.71;95269.25;5086204;28;20766;-72
2021/01/06 07:38:20;;;;;;;9.93;5.13;;;;;;;4.20;79.12;95274.59;5086372;28;20434;-72
2021/01/06 07:41:00;;;;;;;7.80;3.90;;;;;;;4.27;77.31;95275.47;5086425;28;20120;-72
2021/01/06 07:43:30;;;;;;;7.15;4.80;;;;;;;4.36;77.63;95266.63;5066781;28;20040;-71
2021/01/06 07:45:57;;;;;;;5.68;3.90;;;;;;;4.49;77.67;95278.09;5086066;28;20127;-72
2021/01/06 07:48:40;;;;;;;13.63;6.35;;;;;;;4.62;76.48;95283.38;5086651;28;20497;-72
2021/01/06 07:51:24;;;;;;;11.27;5.93;;;;;;;4.67;76.90;95286.22;5085874;28;20040;-72
2021/01/06 07:54:06;;;;;;;11.75;6.93;;;;;;;4.62;76.18;95283.38;5069080;28;20032;-72
2021/01/06 07:56:43;;;;;;;11.32;6.50;;;;;;;4.63;77.36;95285.00;5067135;28;20048;-72
2021/01/06 07:59:43;;;;;;;15.70;8.55;;;;;;;4.68;77.11;95302.50;5068376;28;20132;-72
2021/01/06 08:02:15;;;;;;;11.70;7.45;;;;;;;4.78;76.29;95297.84;5083480;28;20052;-72
2021/01/06 08:04:57;;;;;;;12.20;6.22;;;;;;;4.82;77.03;95287.94;5086396;28;20032;-72
2021/01/06 08:07:25;;;;;;;16.98;7.95;;;;;;;4.73;75.49;95298.38;5083771;28;20040;-72
2021/01/06 08:09:51;;;;;;;7.95;3.88;;;;;;;4.64;76.56;95276.25;5085887;28;20491;-72
2021/01/06 08:12:24;;;;;;;6.07;3.83;;;;;;;4.71;76.30;95287.44;5085933;28;20154;-71
2021/01/06 08:15:26;;;;;;;9.25;4.70;;;;;;;4.77;77.11;95298.81;5085497;28;20063;-72
2021/01/06 08:18:23;;;;;;;4.35;3.35;;;;;;;4.90;76.36;95285.28;5085657;28;20047;-72
2021/01/06 08:21:04;;;;;;;4.88;3.17;;;;;;;5.01;75.14;95287.34;5085403;28;20040;-72
2021/01/06 08:23:51;;;;;;;9.63;5.10;;;;;;;5.38;73.34;95308.72;5085369;28;20483;-73
2021/01/06 08:26:24;;;;;;;13.68;7.35;;;;;;;5.77;73.92;95299.66;5085534;28;20090;-72
2021/01/06 08:29:06;;;;;;;8.93;4.90;;;;;;;5.94;73.95;95292.41;5087318;28;20046;-71
2021/01/06 08:31:35;;;;;;;6.10;3.80;;;;;;;6.30;72.74;95296.59;5085837;28;20078;-72
2021/01/06 08:34:02;;;;;;;3.97;3.00;;;;;;;6.51;70.27;95280.16;5086967;28;20492;-72
2021/01/06 08:36:33;;;;;;;10.60;5.97;;;;;;;6.76;70.23;95295.97;5087186;28;20095;-71
2021/01/06 08:39:19;;;;;;;8.52;4.40;;;;;;;7.00;67.56;95296.41;5085781;28;20044;-72
2021/01/06 08:41:47;;;;;;;6.45;2.88;;;;;;;7.21;66.39;95313.59;5085803;28;20046;-72
2021/01/06 08:44:28;;;;;;;6.15;4.13;;;;;;;7.28;64.72;95314.41;5086542;28;20060;-73
2021/01/06 08:46:57;;;;;;;3.25;2.35;;;;;;;7.28;67.10;95293.66;5086775;28;20471;-73
2021/01/06 08:49:32;;;;;;;15.23;8.20;;;;;;;7.53;66.38;95316.41;5085650;28;20043;-72
2021/01/06 08:52:16;;;;;;;13.32;8.65;;;;;;;7.49;65.18;95320.38;5085244;28;20418;-73
2021/01/06 08:55:18;;;;;;;4.55;3.05;;;;;;;7.55;66.46;95333.34;5084045;28;20044;-73
2021/01/06 08:57:44;;;;;;;4.10;3.20;;;;;;;7.69;65.82;95336.75;5068418;28;20105;-73
2021/01/06 09:00:12;;;;;;;4.50;2.92;;;;;;;7.82;65.25;95290.06;5085458;28;20046;-73
2021/01/06 09:02:49;;;;;;;3.00;2.00;;;;;;;8.03;64.29;95293.38;5085317;28;20107;-73
2021/01/06 09:05:33;;;;;;;4.07;2.80;;;;;;;8.08;63.37;95308.34;5085482;28;20047;-73
2021/01/06 09:08:01;;;;;;;3.15;2.25;;;;;;;8.06;65.00;95285.22;5085567;28;20126;-73
2021/01/06 09:10:36;;;;;;;2.97;2.05;;;;;;;8.43;62.65;95293.31;5089088;28;20041;-73
2021/01/06 09:13:09;;;;;;;5.85;2.72;;;;;;;8.60;60.93;95286.63;5090143;28;20032;-73
2021/01/06 09:15:41;;;;;;;4.10;2.45;;;;;;;8.93;61.38;95272.69;5089957;28;20040;-73
2021/01/06 09:18:13;;;;;;;4.83;2.87;;;;;;;9.05;57.97;95275.41;5089460;28;20035;-73
2021/01/06 09:21:01;;;;;;;6.60;2.10;;;;;;;9.31;59.00;95266.63;5090248;28;20486;-73
2021/01/06 09:23:28;;;;;;;3.53;2.33;;;;;;;9.24;58.58;95263.31;5090388;28;20044;-73
2021/01/06 09:25:55;;;;;;;7.85;2.10;;;;;;;9.42;59.84;95251.34;5085652;28;20426;-73
2021/01/06 09:28:22;;;;;;;8.82;7.85;;;;;;;9.59;58.37;95268.00;5083286;28;20052;-71
2021/01/06 09:30:49;;;;;;;8.07;5.75;;;;;;;9.68;58.18;95255.53;5086691;28;20131;-72
2021/01/06 09:33:22;;;;;;;3.22;1.90;;;;;;;9.96;58.59;95236.84;5087651;28;20816;-72
2021/01/06 09:35:49;;;;;;;6.88;2.60;;;;;;;10.11;58.11;95234.66;5085700;27;20403;-72
2021/01/06 09:38:30;;;;;;;7.95;4.93;;;;;;;9.80;57.00;95251.22;5085315;28;20055;-72
2021/01/06 09:41:00;;;;;;;4.68;3.40;;;;;;;9.10;59.97;95239.19;5084657;28;20067;-73
2021/01/06 09:44:06;;;;;;;4.90;2.45;;;;;;;9.00;61.58;95220.69;5086267;28;20048;-72
2021/01/06 09:46:45;;;;;;;3.78;2.22;;;;;;;9.70;58.74;95223.09;5087181;27;20048;-73
2021/01/06 09:49:19;;;;;;;3.90;1.92;;;;;;;9.92;60.21;95194.03;5086264;28;20051;-73
2021/01/06 09:51:50;;;;;;;5.10;1.85;;;;;;;10.26;56.83;95210.06;5087713;28;20501;-73
2021/01/06 09:54:17;;;;;;;4.70;2.70;;;;;;;10.48;57.64;95189.63;5087136;28;20532;-73
2021/01/06 09:56:45;;;;;;;4.28;2.38;;;;;;;10.69;57.34;95209.13;5085103;28;20426;-73
2021/01/06 09:59:30;;;;;;;3.45;2.17;;;;;;;10.80;56.38;95200.56;5086431;28;20051;-73
2021/01/06 10:02:33;;;;;;;6.35;2.92;;;;;;;10.98;57.12;95191.09;5086967;27;20040;-73
2021/01/06 10:05:20;;;;;;;5.75;3.08;;;;;;;11.02;56.03;95187.00;5088363;28;22684;-73
2021/01/06 10:07:52;;;;;;;65.47;37.17;;;;;;;11.28;57.20;95176.16;5088233;28;20040;-73
2021/01/06 10:10:27;;;;;;;5.57;2.88;;;;;;;11.47;54.02;95176.06;5086274;28;20443;-73
2021/01/06 10:13:11;;;;;;;7.05;3.10;;;;;;;11.40;54.78;95172.78;5087147;28;20044;-72
2021/01/06 10:15:59;;;;;;;5.20;2.90;;;;;;;11.48;54.68;95164.59;5084733;28;20479;-73
2021/01/06 10:18:47;;;;;;;8.00;3.90;;;;;;;12.03;53.59;95164.19;5085385;28;20489;-73
2021/01/06 10:21:39;;;;;;;6.55;2.75;;;;;;;12.23;51.21;95149.94;5085355;28;20059;-73
2021/01/06 10:24:11;;;;;;;7.05;4.65;;;;;;;12.57;51.21;95157.88;5087360;28;20478;-70
2021/01/06 10:26:49;;;;;;;4.65;2.80;;;;;;;12.70;50.32;95160.19;5063637;28;20497;-71
2021/01/06 10:29:43;;;;;;;4.00;2.00;;;;;;;12.76;49.44;95142.75;5087846;28;20040;-70
2021/01/06 10:32:39;;;;;;;3.17;2.33;;;;;;;12.54;50.66;95166.16;5086823;28;20079;-70
2021/01/06 10:35:33;;;;;;;4.57;3.15;;;;;;;12.30;50.62;95150.59;5086755;28;20120;-70
2021/01/06 10:38:27;;;;;;;7.63;5.20;;;;;;;12.19;50.07;95154.03;5086117;28;20708;-70
2021/01/06 10:41:26;;;;;;;9.73;6.40;;;;;;;12.65;47.98;95152.25;5083624;27;20052;-71
2021/01/06 10:44:32;;;;;;;5.22;3.13;;;;;;;12.79;48.52;95153.53;5080239;28;20755;-70
2021/01/06 10:47:16;;;;;;;;;;;;;;;13.01;48.07;95152.84;5086595;28;20533;-70
2021/01/06 10:49:42;;;;;;;13.07;6.50;;;;;;;12.68;49.96;95146.56;5086522;28;20019;-70
2021/01/06 10:52:09;;;;;;;10.68;3.90;;;;;;;12.55;48.61;95125.94;5086170;28;20060;-71
2021/01/06 10:54:52;;;;;;;9.48;4.85;;;;;;;12.20;48.64;95134.75;5086190;28;20067;-71
2021/01/06 10:57:35;;;;;;;6.68;3.88;;;;;;;12.50;48.23;95131.09;5083527;28;20457;-71
2021/01/06 11:00:11;;;;;;;45.13;22.42;;;;;;;12.21;49.81;95121.44;5084957;28;20044;-71
2021/01/06 11:02:49;;;;;;;11.60;7.13;;;;;;;12.34;49.44;95109.94;5086388;28;20055;-71
2021/01/06 11:05:15;;;;;;;3.90;2.70;;;;;;;12.74;47.39;95098.56;5087452;28;20116;-71
2021/01/06 11:07:56;;;;;;;3.65;2.40;;;;;;;12.59;49.65;95090.50;5086172;28;20052;-71
2021/01/06 11:10:53;;;;;;;5.53;3.67;;;;;;;12.67;48.62;95092.69;5082966;28;20453;-71
2021/01/06 11:13:45;;;;;;;6.30;4.75;;;;;;;12.60;48.45;95097.28;5086815;28;20048;-71
2021/01/06 11:16:34;;;;;;;4.60;2.83;;;;;;;12.81;47.94;95088.75;5085922;28;20130;-72
2021/01/06 11:19:01;;;;;;;4.80;3.15;;;;;;;13.50;45.48;95100.72;5086909;28;20083;-72
2021/01/06 11:21:40;;;;;;;5.90;3.60;;;;;;;13.11;46.50;95092.84;5086409;28;20118;-72
2021/01/06 11:24:44;;;;;;;4.07;3.28;;;;;;;12.66;47.70;95083.28;5085056;28;20805;-72
2021/01/06 11:28:03;;;;;;;5.60;3.55;;;;;;;12.31;49.84;95081.66;5081199;27;20047;-72
2021/01/06 11:31:11;;;;;;;5.32;3.67;;;;;;;12.49;49.02;95074.66;5084885;28;20079;-71
2021/01/06 11:33:37;;;;;;;5.85;4.13;;;;;;;12.90;48.73;95096.97;5086082;28;20040;-72
2021/01/06 11:36:07;;;;;;;12.23;9.02;;;;;;;12.96;46.70;95090.00;5088543;28;20161;-71
2021/01/06 11:38:39;;;;;;;16.13;9.80;;;;;;;13.20;46.70;95080.94;5070927;28;20044;-71
2021/01/06 11:41:09;;;;;;;5.78;4.55;;;;;;;13.67;46.97;95071.09;5086987;28;20044;-72
2021/01/06 11:43:57;;;;;;;6.95;4.40;;;;;;;13.38;46.57;95081.75;5087897;28;20055;-73
2021/01/06 11:46:26;;;;;;;3.97;3.15;;;;;;;13.35;48.64;95079.59;5087824;28;20044;-72
2021/01/06 11:49:11;;;;;;;5.07;3.75;;;;;;;13.17;48.77;95081.41;5088230;28;20097;-72
2021/01/06 11:51:38;;;;;;;;;;;;;;;12.72;49.45;95079.72;5086743;28;20505;-72
2021/01/06 11:54:22;;;;;;;9.65;4.97;;;;;;;12.73;49.78;95064.81;5086842;28;19920;-72
2021/01/06 11:57:00;;;;;;;7.47;4.65;;;;;;;12.42;49.66;95065.16;5087525;28;20040;-72
2021/01/06 11:59:48;;;;;;;6.75;4.50;;;;;;;11.98;52.58;95074.56;5085058;28;20054;-72
2021/01/06 12:02:59;;;;;;;7.75;4.43;;;;;;;11.45;54.97;95071.16;5088236;28;20059;-72
2021/01/06 12:05:31;;;;;;;7.20;4.28;;;;;;;11.15;57.11;95060.91;5031516;28;20041;-72
2021/01/06 12:08:42;;;;;;;5.50;3.67;;;;;;;11.26;55.84;95071.28;5080215;28;20048;-72
2021/01/06 12:11:26;;;;;;;8.60;5.97;;;;;;;11.16;56.71;95073.69;5086030;28;20048;-72
2021/01/06 12:14:28;;;;;;;8.60;5.72;;;;;;;11.04;56.27;95065.88;5086541;28;20040;-72
2021/01/06 12:17:12;;;;;;;7.25;5.68;;;;;;;11.57;53.96;95069.31;5087017;28;20062;-72
2021/01/06 12:19:55;;;;;;;7.15;5.18;;;;;;;11.89;52.72;95048.00;5086792;28;20051;-72